arxmliv
arxmliv build tool
 
KWARC group
LaTeXML
About
   
 

Detailed info

Back to Homepage

List of missing_macros

No. Date Filename num_warningnum_errornum_xmargok_xmargnum_xmathok_xmathMissing macros
52601 2013-04-08 17:52:45 /1001/1001.3004 7180000[\affil, \citep, \accepted, \correspondence, \runningtitle, \keywords, \includegraphics, \published, \firstpage, \runningauthor, \revised, {acknowledgements}, \introduction, \received, \pubdiscuss]; 1 missing file[copernicus.cls].
52602 2013-04-08 17:52:37 /1001/1001.3008 1040000[{theacknowledgments}, \layoutstyle, \tablehead, \classification].
52603 2013-04-08 17:52:33 /1001/1001.2999 2550000[\kword, \abst, \inst, \recdate, \citen].
52604 2013-04-08 17:52:29 /1001/1001.2989 9100000[\citep, \altaffilmark, \includegraphics, \Received, \Accepted, \email, \altaffiltext, \citet, \SetRunningHead, \KeyWords]; 1 missing file[pasj00.cls].
52605 2013-04-08 17:52:18 /1001/1001.2997 17110000[\fancyhead, {pacs}, {keyword}, \acknowledgments, \address, \figcaption, \email, \tabcaption, \toprule, \bottomrule]; 2 missing files[cpc-hepnp.cls, lastpage.sty].
52606 2013-04-08 17:52:05 /1001/1001.2977 1910000[\slashed].
52607 2013-04-08 17:51:54 /1001/1001.2979 21180000[\fnref, \fntext].
52608 2013-04-08 17:51:48 /1001/1001.2965 1060000[{keywords}, \affiliation, \jvol, \ARinfo, \jname, \jyear]; 1 missing file[ar2e1.cls].
52609 2013-04-08 17:51:47 /1001/1001.2961 14450000[{lemma}, \Medial, {theorem}, \sca, \eps, \RR, \MedialClos, {example}, \proj, \Lip, {proposition}, \abs, {theoremA}, \Haus, {theoremB}, \Wass, \reach, {corollary}, \B, \Expect, \restr, \diam, \LL, \Sph, {comment}, \p, \MC, \const, \BigO, \nr, \dH, {remark
52610 2013-04-08 17:51:37 /1001/1001.2971 450000[\ShortTitle, \email, \FullConference, \scalefont, \speaker]; 1 missing file[PoS.cls].
52611 2013-04-08 17:51:37 /1001/1001.2983 330000[\bodymatter, \text]; 1 missing file[ws.sty].
52612 2013-04-08 17:51:33 /1001/1001.2947 1520000[{biography}, \IEEEpeerreviewmaketitle]; 1 missing file[IEEEtran.cls].
52613 2013-04-08 17:51:24 /1001/1001.2973 230000[\unit, \refcite]; 1 missing file[ws.sty].
52614 2013-04-08 17:51:24 /1001/1001.2976 030000[\extrasenglish, \dateenglish, \captionsenglish].
52615 2013-04-08 17:51:12 /1001/1001.2955 410000[\subref].
52616 2013-04-08 17:50:55 /1001/1001.2951 720000[\ack, \ead].
52617 2013-04-08 17:50:48 /1001/1001.2938 7570000[\nicefrac, {IEEEkeywords}, \mathds, \IEEEauthorblockA, \IEEEauthorblockN, \psfrag, \IEEEoverridecommandlockouts]; 1 missing file[IEEEtran.cls].
52618 2013-04-08 17:50:44 /1001/1001.2952 010000[\geometry].
52619 2013-04-08 17:50:41 /1001/1001.2950 10100000[\citeyear, \evenpagefooter, \oddpagefooter, \institute, {opening}]; 1 missing file[agile7th.sty].
52620 2013-04-08 17:50:39 /1001/1001.2953 0180000[\figref, \unit, \atom, \refcite, \figlabel, {myitemize}, \micro, \kB, \level, \degree]; 1 missing file[userdef_macros.sty].
52621 2013-04-08 17:50:22 /1001/1001.2954 2500000[\includegraphics, \ShortTitle, \email, \FullConference, \speaker].
52622 2013-04-08 17:50:06 /1001/1001.2927 5430000[Align, \xymatrix, \ar].
52623 2013-04-08 17:49:56 /1001/1001.2906 234160000[\bx, \N, \CG, \CP, \holmes, {rema}, \R, \preface, \CE, \CN, \BE, \bz, \by]; 2 missing files[GCmacroBW.sty, framed.sty].
52624 2013-04-08 17:49:52 /1001/1001.2929 11130000[{prop}, {conj}, \xymatrix, {rema}, {theo}, \urladdr, {lemm}, Align, \email, {enonce*}, \ar, {defi}]; 1 missing file[xy.sty].
52625 2013-04-08 17:49:51 /1001/1001.2926 1210000[\slugcomment, \tabletypesize, {deluxetable}, \shortauthors, \startdata, \shorttitle, \pasp, \enddata, \colhead, \tablenotetext, \tablehead, \tablewidth, \altaffilmark, \keywords, Align, {deluxetable*}, \tablecaption, \altaffiltext, \tablenotemark, \ackno
52626 2013-04-08 17:49:44 /1001/1001.2932 3170000[\address, \subjclass, \email, \firstpageno, \protected@edef, \stacsheading, \keywords]; 1 missing file[stacs.cls].
52627 2013-04-08 17:49:44 /1001/1001.2943 030000[\extrasenglish, \dateenglish, \captionsenglish].
52628 2013-04-08 17:49:34 /1001/1001.2915 2200000[{acknowledgments}, \ls, \iffontfound, \ifCUPmtlplainloaded, \affiliation, \ns, \volume, \pagerange, \checkfont, \pubyear]; 1 missing file[jfm.cls].
52629 2013-04-08 17:49:11 /1001/1001.2931 190000[\IEEEauthorblockA, \IEEEauthorblockN, \IEEEsetlabelwidth, \IEEEpeerreviewmaketitle, \ifCLASSINFOpdf]; 2 missing files[IEEEtran.cls, boxedminipage.sty].
52630 2013-04-08 17:49:00 /1001/1001.2913 12810000[\theappendix].
52631 2013-04-08 17:48:57 /1001/1001.2925 210000[\psfrag].
52632 2013-04-08 17:48:47 /1001/1001.2924 1220000[\slugcomment, \tabletypesize, \shortauthors, {deluxetable}, \startdata, \shorttitle, \pasp, \enddata, \colhead, \tablenotetext, \tablehead, \tablewidth, \altaffilmark, \keywords, Align, {deluxetable*}, \tablecaption, \altaffiltext, \tablenotemark, \ackno
52633 2013-04-08 17:48:34 /1001/1001.2922 4270000[{acknowledgments}, \citep, {article}, \authoraddr, \authorrunninghead, \altaffilmark, \altaffiltext, \citet, \titlerunninghead]; 1 missing file[agutex.cls].
52634 2013-04-08 17:48:23 /1001/1001.2876 100150000[Align, {comment}, \xymatrix, \ar]; 9 missing files[xycurve.sty, xymatrix.sty, xyline.sty, xyarrow.sty, xycmtip.sty, xycolor.sty, xyrotate.sty, xyframe.sty, xygraph.sty].
52635 2013-04-08 17:48:23 /1001/1001.2897 1240000[{IEEEbiographynophoto}, {IEEEkeywords}, \psfrag, {IEEEproof}]; 1 missing file[IEEEtran.cls].
52636 2013-04-08 17:48:15 /1001/1001.2909 1130000[{theacknowledgments}, \layoutstyle, \classification].
52637 2013-04-08 17:47:59 /1001/1001.2901 7180000[\kwd, \snm, \affiliation, {keyword}, \fnms, \runtitle, {aug}, \address, \settocdepth, \runauthor, \printead, {frontmatter}, \ead]; 1 missing file[tocvsec2.sty].
52638 2013-04-08 17:47:55 /1001/1001.2849 7580000[Align, \dir, \xymatrix, \newdir, \ar, \SilentMatrices]; 1 missing file[xy.sty].
52639 2013-04-08 17:47:43 /1001/1001.2826 3420000[\mathds, \citet].
52640 2013-04-08 17:47:38 /1001/1001.2898 580000[\figcaption, \address, \email, \fancyhead, {pacs}, {keyword}, \acknowledgments]; 2 missing files[cpc-hepnp.cls, lastpage.sty].
52641 2013-04-08 17:47:35 /1001/1001.2887 2580000[\Black, \Arc, \Text, \Vertex, \Line, \SetWidth, \SetColor]; 1 missing file[axodraw4j.sty].
52642 2013-04-08 17:47:25 /1001/1001.2884 10160000[Align, \xymatrix, \ar]; 1 missing file[xy.sty].
52643 2013-04-08 17:47:24 /1001/1001.2869 17280000[\ArrowArc, \Line, \DashArrowLine, \ArrowLine, \Text, \SetWidth, \DashArrowArc, \DashArrowArcn].
52644 2013-04-08 17:47:06 /1001/1001.2890 030000[\extrasenglish, \dateenglish, \captionsenglish].
52645 2013-04-08 17:46:54 /1001/1001.2870 760000[\upchi, \address, \uptau, \uplambda, {acknowledgement}]; 2 missing files[w-greek.sty, w-hep.cls].
52646 2013-04-08 17:46:47 /1001/1001.2877 1810000[\mathds].
52647 2013-04-08 17:46:36 /1001/1001.2860 430000[\affil]; 1 missing file[authblk.sty].
52648 2013-04-08 17:46:13 /1001/1001.2857 280000[\sodauthor, \rauthor, \address, \sodtitle, \dates, \lat, \PACS, \rtitle].
52649 2013-04-08 17:46:11 /1001/1001.2856 8120000[\includegraphics, \ShortTitle, \email, \FullConference, \acknowledgments, \speaker]; 1 missing file[PoS.cls].
52650 2013-04-08 17:46:10 /1001/1001.2881 020000[\includegraphics]; 1 missing file[ol2.sty].
52651 2013-04-08 17:46:00 /1001/1001.2864 2010000[\geometry].
52652 2013-04-08 17:45:55 /1001/1001.2751 9710000[\geometry].
52653 2013-04-08 17:45:35 /1001/1001.2832 010000[\cortext].
52654 2013-04-08 17:45:25 /1001/1001.2843 040000[{theacknowledgments}, \layoutstyle, \classification]; 1 missing file[{aipcheck}].
52655 2013-04-08 17:44:58 /1001/1001.2822 4230000[Align, \xymatrix, \ar].
52656 2013-04-08 17:44:53 /1001/1001.2841 4540000[Align, \xymatrix, \ar]; 1 missing file[xy.sty].
52657 2013-04-08 17:44:41 /1001/1001.2815 14140000[Align, \xymatrix, \hole, \ar]; 10 missing files[xycurve.sty, xymatrix.sty, xyline.sty, xyarrow.sty, xycmtip.sty, xycolor.sty, xyrotate.sty, xy.sty, xyframe.sty, xygraph.sty].
52658 2013-04-08 17:44:40 /1001/1001.2839 2750000[\pacs, \inst, \institute, \onefigure, \acknowledgments]; 1 missing file[epl2.cls].
52659 2013-04-08 17:44:38 /1001/1001.2824 6650000[Align, \xymatrix, \ar, \SilentMatrices]; 1 missing file[xy.sty].
52660 2013-04-08 17:44:35 /1001/1001.2842 54180000[\includegraphics, \ShortTitle, \email, \FullConference, \blacktriangledown, \blacktriangle, \speaker]; 1 missing file[PoS.cls].
52661 2013-04-08 17:44:23 /1001/1001.2836 130000[\gtreqless, \bodymatter]; 1 missing file[ws.sty].
52662 2013-04-08 17:43:48 /1001/1001.2828 030000[\extrasenglish, \dateenglish, \captionsenglish].
52663 2013-04-08 17:43:28 /1001/1001.2797 52130000[\kwd, \snm, \affiliation, {keyword}, \fnms, \runtitle, {aug}, \address, \runauthor, \printead, \corref, {frontmatter}, \ead]; 1 missing file[imsart.cls].
52664 2013-04-08 17:43:24 /1001/1001.2813 030000[\extrasenglish, \dateenglish, \captionsenglish].
52665 2013-04-08 17:43:22 /1001/1001.2816 420000[\@slowromancap]; 1 missing file[tipa.sty].
52666 2013-04-08 17:43:17 /1001/1001.2806 4210000[\IEEEoverridecommandlockouts]; 1 missing file[IEEEtran.cls].
52667 2013-04-08 17:43:16 /1001/1001.2817 050000[\affil, \ul]; 3 missing files[authblk.sty, soul.sty, bold-extra.sty].
52668 2013-04-08 17:43:02 /1001/1001.2800 2850000[\includegraphics, \ShortTitle, \email, \FullConference, \speaker]; 1 missing file[PoS.cls].
52669 2013-04-08 17:42:58 /1001/1001.2801 140000[\extrasenglish, \dateenglish, \captionsenglish]; 1 missing file[esint.sty].
52670 2013-04-08 17:42:56 /1001/1001.2805 1560000[\IEEEauthorblockA, \IEEEauthorblockN, \IEEEpeerreviewmaketitle, \ifCLASSINFOpdf]; 1 missing file[IEEEtran.cls].
52671 2013-04-08 17:42:55 /1001/1001.2779 370000[\defaultaddspace, \psfrag, \midrule, \addlinespace, \toprule, \bottomrule].
52672 2013-04-08 17:42:43 /1001/1001.2766 23920000[\QED, {proof}]; 1 missing file[IEEEtran.cls].
52673 2013-04-08 17:42:42 /1001/1001.2792 410000[\marginsize].
52674 2013-04-08 17:42:39 /1001/1001.2777 2060000[\defaultaddspace, \midrule, \psfrag, \addlinespace, \toprule, \bottomrule].
52675 2013-04-08 17:42:38 /1001/1001.2807 14250000[\includegraphics, \ShortTitle, \email, \FullConference, \speaker]; 1 missing file[PoS.cls].
52676 2013-04-08 17:42:26 /1001/1001.2781 11740000[\IEEEauthorblockA, \IEEEauthorblockN, {comment}, \appendices]; 1 missing file[IEEEtran.cls].
52677 2013-04-08 17:42:00 /1001/1001.2767 10230000[{algorithm}, \avg, \KwOut, \real, {example}, \determinantreplace, \For, \reci, \dontprintsemicolon, \KwIn, \ummthm, {restatable}]; 2 missing files[myDefs.sty, thm-restate.sty].
52678 2013-04-08 17:41:59 /1001/1001.2798 810000[\unit].
52679 2013-04-08 17:41:54 /1001/1001.2786 1050000[\authorblockN, \authorrefmark, \authorblockA, {proof}]; 1 missing file[IEEEtran.cls].
52680 2013-04-08 17:41:41 /1001/1001.2773 4140000[\citeyearNP, \citeNP, \citeN]; 1 missing file[xchicago.sty].
52681 2013-04-08 17:41:38 /1001/1001.2784 030000[\extrasenglish, \dateenglish, \captionsenglish].
52682 2013-04-08 17:41:16 /1001/1001.2753 11060000[{SCfigure}, {AMS}, \psfrag, \diag]; 1 missing file[sidecap.sty].
52683 2013-04-08 17:41:00 /1001/1001.2760 4930000[\theappendix, \mathlarger, \geometry].
52684 2013-04-08 17:40:42 /1001/1001.2764 2150000[\Abstract, \ArticleName, \EmailD, \ShortArticleName, \tsep, \FirstPageHeading, \bsep, \Address, \pdfbookmark, \LastPageEnding, \Classification, \ArticleDates, \Author, \AuthorNameForHeading, \Keywords].
52685 2013-04-08 17:40:35 /1001/1001.2708 230000[\theappendix].
52686 2013-04-08 17:40:33 /1001/1001.2763 18150000[\lemref, \seclabel, \figref, \N, \figlabel, \R, \thmlabel, \thmref, \secref, \lemlabel, {proof}, {lem}, \etal, {thm}]; 2 missing files[patmorin.cls, pat.sty].
52687 2013-04-08 17:40:14 /1001/1001.2746 040000[\eqref, \layoutstyle, \classification]; 1 missing file[{aipcheck}].
52688 2013-04-08 17:40:07 /1001/1001.2716 5040000[{overpic}].
52689 2013-04-08 17:40:07 /1001/1001.2747 6100000[\includegraphics, \ShortTitle, \href, \email, \FullConference, \speaker]; 1 missing file[PoS.cls].
52690 2013-04-08 17:40:02 /1001/1001.2694 22320000[\lineto].
52691 2013-04-08 17:39:47 /1001/1001.2734 18270000[\affil, \eqref, \figref, \applabel, \appref, \figlabel, \thmref, \thmlabel, \corlabel, \email, \E, \corref, \secref, \lemlabel, {thm}, {lem}, \etal, {cor}, \seclabel, \lemref, \Eqref, \R, \Secref, {prb}, \eqlabel, {proof}]; 2 missing files[patmorin.cls,
52692 2013-04-08 17:39:47 /1001/1001.2737 010000[{comment}].
52693 2013-04-08 17:39:42 /1001/1001.2726 1410000[\ead].
52694 2013-04-08 17:39:26 /1001/1001.2731 1330000[\cortext].
52695 2013-04-08 17:39:24 /1001/1001.2744 020000[\ack, \ead].
52696 2013-04-08 17:39:21 /1001/1001.2724 010000[\ead].
52697 2013-04-08 17:39:14 /1001/1001.2721 5820000[\nouppercase]; 1 missing file[xy.sty].
52698 2013-04-08 17:39:08 /1001/1001.2730 650000[{acknowledgments}, \ShortTitle, \email, \FullConference, \speaker]; 1 missing file[PoS.cls].
52699 2013-04-08 17:38:56 /1001/1001.2622 14830000[\cstar].
52700 2013-04-08 17:38:54 /1001/1001.2703 1110000[\slashed].
52701 2013-04-08 17:38:50 /1001/1001.2701 1510000[\theappendix].
52702 2013-04-08 17:38:47 /1001/1001.2718 630000[\layoutstyle, \classification]; 1 missing file[{aipcheck}].
52703 2013-04-08 17:38:38 /1001/1001.2521 340000[\onllongtab]; 1 missing file[aalongtable.sty].
52704 2013-04-08 17:38:18 /1001/1001.2707 1410000[\@end@institute].
52705 2013-04-08 17:38:14 /1001/1001.2680 1540000[{comment}, \node, \arrow, {diagram}].
52706 2013-04-08 17:38:04 /1001/1001.2706 030000[\layoutstyle, \classification]; 1 missing file[{aipcheck}].
52707 2013-04-08 17:37:35 /1001/1001.2690 430000[\address, \abstracts]; 1 missing file[14lomcon.sty].
52708 2013-04-08 17:37:33 /1001/1001.2688 780000[\includegraphics, \ShortTitle, \email, \FullConference, \acknowledgments, \speaker]; 1 missing file[PoS.cls].
52709 2013-04-08 17:37:33 /1001/1001.2699 5810000[\listfiles].
52710 2013-04-08 17:37:25 /1001/1001.2663 34210000[\natu, \lat, \sip, \gr, \ub, \phy, \const, \ket, \bra, \sgn, \integ, \Hil, \Bohr, \lPl, \re, \rd, \Sp, \fracs, \ip, \kin]; 1 missing file[LQC-symbols.sty].
52711 2013-04-08 17:37:14 /1001/1001.2668 2650000[\includegraphics, \ShortTitle, \email, \FullConference, \speaker]; 1 missing file[PoS.cls].
52712 2013-04-08 17:37:12 /1001/1001.2681 190000[\email, \affiliation, \backslashbox, \alsoaffiliation, {acknowledgement}, \ce, \altaffiliation]; 3 missing files[achemso.cls, mhchem.sty, slashbox.sty].
52713 2013-04-08 17:36:57 /1001/1001.2612 5910000[{proof}]; 1 missing file[IEEEtran.cls].
52714 2013-04-08 17:36:57 /1001/1001.2687 1020000[\layoutstyle, \classification].
52715 2013-04-08 17:36:46 /1001/1001.2662 10250000[\IEEEauthorblockA, \IEEEauthorblockN, \IEEEpeerreviewmaketitle, {proof}, {IEEEproof}]; 1 missing file[IEEEtran.cls].
52716 2013-04-08 17:36:21 /1001/1001.2661 10190000[\draftcopyName]; 1 missing file[prelim2e.sty].
52717 2013-04-08 17:35:56 /1001/1001.2633 1950000[Align, \xymatrix, \drawline, \ar]; 1 missing file[xy.sty].
52718 2013-04-08 17:35:47 /1001/1001.2649 1070000[\includegraphics, \ShortTitle, \FullConference, \speaker]; 1 missing file[PoS.cls].
52719 2013-04-08 17:35:38 /1001/1001.2625 450000[{framed}]; 1 missing file[framed.sty].
52720 2013-04-08 17:35:37 /1001/1001.2652 240000[\eg, \PACS, \ie]; 1 missing file[size11.clo.sty].
52721 2013-04-08 17:35:34 /1001/1001.2562 270170000[\endCD, \ltimes, \Bbbk, \CD]; 9 missing files[xycurve.sty, xymatrix.sty, xyline.sty, xyarrow.sty, xycmtip.sty, xycolor.sty, xyrotate.sty, xyframe.sty, xygraph.sty].
52722 2013-04-08 17:35:27 /1001/1001.2635 4300000[\eqref, {theacknowledgments}, \layoutstyle, \classification].
52723 2013-04-08 17:35:24 /1001/1001.2624 030000[\extrasenglish, \dateenglish, \captionsenglish].
52724 2013-04-08 17:35:19 /1001/1001.2639 130000[{theacknowledgments}, \layoutstyle, \classification].
52725 2013-04-08 17:35:14 /1001/1001.2642 1230000[\mathbb, \keywords]; 1 missing file[ws.sty].
52726 2013-04-08 17:35:09 /1001/1001.2643 220000[\ack, \ead].
52727 2013-04-08 17:34:46 /1001/1001.2628 6100000[\drrtwocell, \urtwocell, \xymatrix, \UseAllTwocells, \xyoption, Align, \SelectTips, \drtwocell, \ar]; 1 missing file[xy.sty].
52728 2013-04-08 17:34:13 /1001/1001.2634 550000[\psfig, \bodymatter, \refcite, \keywords]; 1 missing file[ws.sty].
52729 2013-04-08 17:33:28 /1001/1001.2606 010000[\theappendix].
52730 2013-04-08 17:33:27 /1001/1001.2603 420000[{keywords}, \authorblockA]; 1 missing file[IEEEtran.cls].
52731 2013-04-08 17:33:22 /1001/1001.2623 2470000[\IEEEauthorblockA, \IEEEauthorblockN, \psfrag, \IEEEpeerreviewmaketitle, \ifCLASSINFOpdf]; 1 missing file[IEEEtran.cls].
52732 2013-04-08 17:32:50 /1001/1001.2596 360000[\IEEEauthorblockA, \IEEEauthorblockN, \IEEEpeerreviewmaketitle, {IEEEproof}, \IEEEauthorrefmark]; 2 missing files[stfloats.sty, IEEEtran.cls].
52733 2013-04-08 17:32:35 /1001/1001.2582 4130000[{tablenotes}, \overrideIEEEmargins, \midrule, \IEEEoverridecommandlockouts, {threeparttable}, \tnote, \cmidrule, \psfrag, {proof}, \toprule, \bottomrule]; 1 missing file[threeparttable.sty].
52734 2013-04-08 17:32:22 /1001/1001.2602 010000[\mathinner].
52735 2013-04-08 17:32:20 /1001/1001.2572 2230000[\dotnode]; 2 missing files[pst-tree.sty, pst-text.sty].
52736 2013-04-08 17:32:14 /1001/1001.2578 4410000[\normalem].
52737 2013-04-08 17:32:14 /1001/1001.2584 140000[\ShortTitle, \email, \FullConference, \speaker]; 1 missing file[PoS.cls].
52738 2013-04-08 17:32:14 /1001/1001.2601 210000[\ead].
52739 2013-04-08 17:32:05 /1001/1001.2586 0100000[\nicefrac, \extrasenglish, \Procedure, \EndProcedure, \State, \EndWhile, \While, {algorithmic}, \dateenglish, \captionsenglish].
52740 2013-04-08 17:31:57 /1001/1001.2583 040000[\bodymatter, \refcite, \keywords]; 1 missing file[ws.sty].
52741 2013-04-08 17:31:54 /1001/1001.2589 2210000[{centering}].
52742 2013-04-08 17:31:46 /1001/1001.2573 1830000[\nicefrac, \boxempty, \ocircle].
52743 2013-04-08 17:31:46 /1001/1001.2591 030000[\subfloat].
52744 2013-04-08 17:31:40 /1001/1001.2575 3600000[\titlespacing]; 1 missing file[footnote.sty].
52745 2013-04-08 17:31:23 /1001/1001.2563 1130000[\includegraphics, \colrule, \gtrsim, \lesssim, \epsfig, \psfig, \bodymatter, \keywords]; 1 missing file[ws.sty].
52746 2013-04-08 17:31:20 /1001/1001.2565 14190000[\apj, \timeform, \emissiontype, \pasj, \aaps, \aap, \Accepted, \email, \KeyWords, \etal, \aj, \altaffilmark, \Received, \apjs, \mnras, \FigureFile, \gtrsim, \altaffiltext, \SetRunningHead]; 1 missing file[pasj00.cls].
52747 2013-04-08 17:31:02 /1001/1001.2581 5230000[\includegraphics, \ShortTitle, \email, \FullConference, \speaker]; 1 missing file[PoS.cls].
52748 2013-04-08 17:30:56 /1001/1001.2532 53570000[{lemma}, \sdot, {theorem}, \N, \Mmhat, \Mmu, {example}, \absgx, \U, \midmid, \M, {proposition}, \abs, \Mf, \Mm, \pos, \overarrow, {corollary}, \tgx, \norm, \integral, \absdot, \s, \diam, {theorem*}, {remark}, \tr, \satx, {convention}, \Mfhat, \Matx, \TM,
52749 2013-04-08 17:30:45 /1001/1001.2569 130000[\IEEEauthorblockA, \IEEEauthorblockN]; 2 missing files[footnote.sty, IEEEtran.cls].
52750 2013-04-08 17:30:38 /1001/1001.2558 050000[\extrasenglish, {sidewaystable*}, \dateenglish, \captionsenglish].
52751 2013-04-08 17:30:23 /1001/1001.2541 3620000[\setauthormarkup, \definechangesauthor].
52752 2013-04-08 17:30:13 /1001/1001.2543 220000[\medbullet].
52753 2013-04-08 17:29:42 /1001/1001.2544 010000[\@end@institute].
52754 2013-04-08 17:29:35 /1001/1001.2522 30120000[Align, \xymatrix, \ar]; 9 missing files[xycurve.sty, xymatrix.sty, xyline.sty, xyarrow.sty, xycmtip.sty, xycolor.sty, xyrotate.sty, xyframe.sty, xygraph.sty].
52755 2013-04-08 17:29:31 /1001/1001.2550 0100000[\bm, \psfig, \keywords, \mfrac, \uniC, \bodymatter, \citet, \diag]; 2 missing files[ws.sty, simbolos09.sty].
52756 2013-04-08 17:29:07 /1001/1001.2537 6130000[\includegraphics, \ShortTitle, \email, \FullConference, \speaker]; 1 missing file[PoS.cls].
52757 2013-04-08 17:29:06 /1001/1001.2504 121190000[\endxy, Align, \xymatrix, \crv, \xy, \ar]; 1 missing file[xy.sty].
52758 2013-04-08 17:28:13 /1001/1001.2510 010000[\ead].
52759 2013-04-08 17:27:55 /1001/1001.2471 17420000[\affil]; 1 missing file[authblk.sty].
52760 2013-04-08 17:27:52 /1001/1001.2500 340000[Align, \xymatrix, \ar]; 1 missing file[xy.sty].
52761 2013-04-08 17:27:46 /1001/1001.2496 450000[\geometry].
52762 2013-04-08 17:27:39 /1001/1001.2486 1550000[\D, \@end@institute, {petit}, \E, \I].
52763 2013-04-08 17:27:32 /1001/1001.2520 180000[\citeauthoryear, \editors, \affiliation, \jname, \pagerange, \keywords, \volume, \pubyear]; 1 missing file[iaus.cls].
52764 2013-04-08 17:27:22 /1001/1001.2503 540000[\authorblockN, \authorblockA, \IEEEpeerreviewmaketitle, \newtheorem]; 1 missing file[IEEEtran.cls].
52765 2013-04-08 17:27:21 /1001/1001.2502 230000[\layoutstyle, \classification]; 1 missing file[{aipcheck}].
52766 2013-04-08 17:27:02 /1001/1001.2507 930000[{theacknowledgments}, \layoutstyle, \classification].
52767 2013-04-08 17:26:55 /1001/1001.2492 110000[\psfrag].
52768 2013-04-08 17:26:38 /1001/1001.2498 450000[\ocircle].
52769 2013-04-08 17:26:14 /1001/1001.2480 380000[\firstsection, \editors, \affiliation, \jname, \pagerange, \keywords, \volume, \pubyear]; 1 missing file[iaus.cls].
52770 2013-04-08 17:26:01 /1001/1001.2469 1010000[\E].
52771 2013-04-08 17:25:59 /1001/1001.2488 11120000[\IEEEauthorblockA, \IEEEauthorblockN, \ifdraft, \appendices, \mdyyyydate, \xxivtime, {IEEEproof}, \IEEEQED, \usdate]; 4 missing files[datetime.sty, IEEEtran.cls, ifdraft.sty, snapshot.sty].
52772 2013-04-08 17:25:32 /1001/1001.2468 8210000[\includegraphics, \ShortTitle, \email, \FullConference, \speaker]; 1 missing file[PoS.cls].
52773 2013-04-08 17:25:07 /1001/1001.2458 010000[\theappendix].
52774 2013-04-08 17:25:00 /1001/1001.2464 750000[\authorblockN, \authorrefmark, \authorblockA, {proof}]; 2 missing files[stfloats.sty, IEEEtran.cls].
52775 2013-04-08 17:24:52 /1001/1001.2466 3100000[\affil, \citep, {article}, \authoraddr, \authorrunninghead, \grl, \setkeys, \citet, \acknowledgements, \titlerunninghead]; 1 missing file[agutex.cls].
52776 2013-04-08 17:24:45 /1001/1001.2461 030000[{theacknowledgments}, \layoutstyle, \classification].
52777 2013-04-08 17:24:45 /1001/1001.2467 2110000[\includegraphics, \pacs, \shortauthor, \institute, \acknowledgments]; 1 missing file[epl2.cls].
52778 2013-04-08 17:24:31 /1001/1001.2454 220000[\ack, \ead].
52779 2013-04-08 17:24:25 /1001/1001.2452 13210000[\includegraphics, \contribID, \doi, \desyproc, \confID, \text, \acronym]; 1 missing file[desyproc.cls].
52780 2013-04-08 17:24:09 /1001/1001.2455 030000[{theacknowledgments}, \layoutstyle, \classification].
52781 2013-04-08 17:24:01 /1001/1001.2408 24120000[Align, \xymatrix, \ar]; 9 missing files[xycurve.sty, xymatrix.sty, xyline.sty, xyarrow.sty, xycmtip.sty, xycolor.sty, xyrotate.sty, xyframe.sty, xygraph.sty].
52782 2013-04-08 17:23:53 /1001/1001.2445 13390000[\fancyhead, {pacs}, {keyword}, \address, \figcaption, \email, {enumerate*}, \psfrag, {itemize*}, \tabcaption]; 3 missing files[cpc-hepnp.cls, lastpage.sty, mdwlist.sty].
52783 2013-04-08 17:23:50 /1001/1001.2429 21140000[Align, \young, \xymatrix, \ar]; 10 missing files[xycurve.sty, xymatrix.sty, xyline.sty, xyarrow.sty, xycmtip.sty, xycolor.sty, xyrotate.sty, xy.sty, xyframe.sty, xygraph.sty].
52784 2013-04-08 17:23:38 /1001/1001.2430 770000[\extrasenglish, \pacs, \inst, \shortauthor, \institute, \dateenglish, \captionsenglish]; 1 missing file[epl2.cls].
52785 2013-04-08 17:23:37 /1001/1001.2447 920000[\authorblockN, \authorblockA]; 1 missing file[IEEEtran.cls].
52786 2013-04-08 17:23:22 /1001/1001.2421 1110000[{proof}]; 1 missing file[IEEEtran.cls].
52787 2013-04-08 17:23:14 /1001/1001.2435 5040000[Align, \xymatrix, \ar]; 1 missing file[xy.sty].
52788 2013-04-08 17:22:57 /1001/1001.2419 1170000[\includegraphics, \eqref, Align, \catchline, \text, \keywords]; 1 missing file[ws.sty].
52789 2013-04-08 17:22:36 /1001/1001.2423 940000[\ShortTitle, \email, \FullConference, \speaker]; 1 missing file[PoS.cls].
52790 2013-04-08 17:22:31 /1001/1001.2410 3060000[\authorblockN, \minuso, \authorblockA, {proof}, \footernote]; 2 missing files[IEEEtran.cls, fixmath.sty].
52791 2013-04-08 17:22:30 /1001/1001.2399 3310000[\slashed].
52792 2013-04-08 17:22:24 /1001/1001.2427 150000[\includegraphics, \ShortTitle, \email, \FullConference, \speaker]; 1 missing file[PoS.cls].
52793 2013-04-08 17:22:14 /1001/1001.2407 140000[\ShortTitle, \email, \FullConference, \speaker]; 1 missing file[PoS.cls].
52794 2013-04-08 17:22:05 /1001/1001.2371 2380000[Align, \N, \Z, \xymatrix, \ar, \R, \C]; 1 missing file[xy.sty].
52795 2013-04-08 17:22:05 /1001/1001.2372 4420000[\Bbb]; 1 missing file[amsfont12.sty].
52796 2013-04-08 17:21:54 /1001/1001.2400 320000[\@end@institute]; 1 missing file[aps-bibstyle.sty].
52797 2013-04-08 17:21:53 /1001/1001.2366 75340000[\ddrruppertwocell, \drlowertwocell, \rrlowertwocell, \rtwocell, \urtwocell, \xy, \endxy, \drtwocell, \duppertwocell, \urrtwocell, \CompileMatrices, \ar, \drrtwocell, \rrtwocell, \xymatrix, \dtwocell, \UseAllTwocells, \uurrlowertwocell, Align, \dlowertwoc
52798 2013-04-08 17:21:51 /1001/1001.2396 1040000[\ShortTitle, \email, \FullConference, \speaker]; 1 missing file[PoS.cls].
52799 2013-04-08 17:21:42 /1001/1001.2395 540000[\eqref, \citet, \bodymatter]; 1 missing file[ws.sty].
52800 2013-04-08 17:21:34 /1001/1001.2397 550000[\includegraphics, \ShortTitle, \email, \FullConference, \speaker]; 1 missing file[PoS.cls].
<<< >>>

[0] [200] [400] [600] [800] [1000] [1200] [1400] [1600] [1800] [2000] [2200] [2400] [2600] [2800] [3000] [3200] [3400] [3600] [3800] [4000] [4200] [4400] [4600] [4800] [5000] [5200] [5400] [5600] [5800] [6000] [6200] [6400] [6600] [6800] [7000] [7200] [7400] [7600] [7800] [8000] [8200] [8400] [8600] [8800] [9000] [9200] [9400] [9600] [9800] [10000] [10200] [10400] [10600] [10800] [11000] [11200] [11400] [11600] [11800] [12000] [12200] [12400] [12600] [12800] [13000] [13200] [13400] [13600] [13800] [14000] [14200] [14400] [14600] [14800] [15000] [15200] [15400] [15600] [15800] [16000] [16200] [16400] [16600] [16800] [17000] [17200] [17400] [17600] [17800] [18000] [18200] [18400] [18600] [18800] [19000] [19200] [19400] [19600] [19800] [20000] [20200] [20400] [20600] [20800] [21000] [21200] [21400] [21600] [21800] [22000] [22200] [22400] [22600] [22800] [23000] [23200] [23400] [23600] [23800] [24000] [24200] [24400] [24600] [24800] [25000] [25200] [25400] [25600] [25800] [26000] [26200] [26400] [26600] [26800] [27000] [27200] [27400] [27600] [27800] [28000] [28200] [28400] [28600] [28800] [29000] [29200] [29400] [29600] [29800] [30000] [30200] [30400] [30600] [30800] [31000] [31200] [31400] [31600] [31800] [32000] [32200] [32400] [32600] [32800] [33000] [33200] [33400] [33600] [33800] [34000] [34200] [34400] [34600] [34800] [35000] [35200] [35400] [35600] [35800] [36000] [36200] [36400] [36600] [36800] [37000] [37200] [37400] [37600] [37800] [38000] [38200] [38400] [38600] [38800] [39000] [39200] [39400] [39600] [39800] [40000] [40200] [40400] [40600] [40800] [41000] [41200] [41400] [41600] [41800] [42000] [42200] [42400] [42600] [42800] [43000] [43200] [43400] [43600] [43800] [44000] [44200] [44400] [44600] [44800] [45000] [45200] [45400] [45600] [45800] [46000] [46200] [46400] [46600] [46800] [47000] [47200] [47400] [47600] [47800] [48000] [48200] [48400] [48600] [48800] [49000] [49200] [49400] [49600] [49800] [50000] [50200] [50400] [50600] [50800] [51000] [51200] [51400] [51600] [51800] [52000] [52200] [52400] [52600] [52800] [53000] [53200] [53400] [53600] [53800] [54000] [54200] [54400] [54600] [54800] [55000] [55200] [55400] [55600] [55800] [56000] [56200] [56400] [56600] [56800] [57000] [57200] [57400] [57600] [57800] [58000] [58200] [58400] [58600] [58800] [59000] [59200] [59400] [59600] [59800] [60000] [60200] [60400] [60600] [60800] [61000] [61200] [61400] [61600] [61800] [62000] [62200] [62400] [62600] [62800] [63000] [63200] [63400] [63600] [63800] [64000] [64200] [64400] [64600] [64800] [65000] [65200] [65400] [65600] [65800] [66000] [66200] [66400] [66600] [66800] [67000] [67200] [67400] [67600] [67800] [68000] [68200] [68400] [68600] [68800] [69000] [69200] [69400] [69600] [69800] [70000] [70200] [70400] [70600] [70800] [71000] [71200] [71400] [71600] [71800] [72000] [72200] [72400] [72600] [72800] [73000] [73200] [73400] [73600] [73800] [74000] [74200] [74400] [74600] [74800] [75000] [75200] [75400] [75600] [75800] [76000] [76200] [76400] [76600] [76800] [77000] [77200] [77400] [77600] [77800] [78000] [78200] [78400] [78600] [78800] [79000] [79200] [79400] [79600] [79800] [80000] [80200] [80400] [80600] [80800] [81000] [81200] [81400] [81600] [81800] [82000] [82200] [82400] [82600] [82800] [83000] [83200] [83400] [83600] [83800] [84000] [84200] [84400] [84600] [84800] [85000] [85200] [85400] [85600] [85800] [86000] [86200] [86400] [86600] [86800] [87000] [87200] [87400] [87600] [87800] [88000] [88200] [88400] [88600] [88800] [89000] [89200] [89400] [89600] [89800] [90000] [90200] [90400] [90600] [90800] [91000] [91200] [91400] [91600] [91800] [92000] [92200] [92400] [92600] [92800] [93000] [93200] [93400] [93600] [93800] [94000] [94200] [94400] [94600] [94800] [95000] [95200] [95400] [95600] [95800] [96000] [96200] [96400] [96600] [96800] [97000] [97200] [97400] [97600] [97800] [98000] [98200] [98400] [98600] [98800] [99000] [99200] [99400] [99600] [99800] [100000] [100200] [100400] [100600] [100800] [101000] [101200] [101400] [101600] [101800] [102000] [102200] [102400] [102600] [102800] [103000] [103200] [103400] [103600] [103800] [104000] [104200] [104400] [104600] [104800] [105000] [105200] [105400] [105600] [105800] [106000] [106200] [106400] [106600] [106800] [107000] [107200] [107400] [107600] [107800] [108000] [108200] [108400] [108600] [108800] [109000] [109200] [109400] [109600] [109800] [110000] [110200] [110400] [110600] [110800] [111000] [111200] [111400] [111600] [111800] [112000] [112200] [112400] [112600] [112800] [113000] [113200] [113400] [113600] [113800] [114000] [114200] [114400] [114600] [114800] [115000] [115200] [115400] [115600] [115800] [116000] [116200] [116400] [116600] [116800] [117000] [117200] [117400] [117600] [117800] [118000] [118200] [118400] [118600] [118800] [119000] [119200] [119400] [119600] [119800] [120000] [120200] [120400] [120600] [120800] [121000] [121200] [121400] [121600] [121800] [122000] [122200] [122400] [122600] [122800] [123000] [123200] [123400] [123600] [123800] [124000] [124200] [124400] [124600] [124800] [125000] [125200] [125400] [125600] [125800] [126000] [126200] [126400] [126600] [126800] [127000] [127200] [127400] [127600] [127800] [128000] [128200] [128400] [128600] [128800] [129000] [129200] [129400] [129600] [129800] [130000] [130200] [130400] [130600] [130800] [131000] [131200] [131400] [131600] [131800] [132000] [132200] [132400] [132600] [132800] [133000] [133200] [133400] [133600] [133800] [134000] [134200] [134400] [134600] [134800] [135000] [135200] [135400] [135600] [135800] [136000] [136200] [136400] [136600] [136800] [137000] [137200] [137400] [137600] [137800] [138000] [138200] [138400] [138600] [138800] [139000] [139200] [139400] [139600] [139800] [140000] [140200] [140400] [140600] [140800] [141000] [141200] [141400] [141600] [141800] [142000] [142200] [142400] [142600] [142800] [143000] [143200] [143400] [143600] [143800] [144000] [144200] [144400] [144600] [144800] [145000] [145200] [145400] [145600] [145800] [146000] [146200] [146400] [146600] [146800] [147000] [147200] [147400] [147600] [147800] [148000] [148200] [148400] [148600] [148800] [149000] [149200] [149400] [149600] [149800] [150000] [150200] [150400] [150600] [150800] [151000] [151200] [151400] [151600] [151800] [152000] [152200] [152400] [152600] [152800] [153000] [153200] [153400] [153600] [153800] [154000] [154200] [154400] [154600] [154800] [155000] [155200] [155400] [155600] [155800] [156000] [156200] [156400] [156600] [156800] [157000] [157200] [157400] [157600] [157800] [158000] [158200] [158400] [158600] [158800] [159000] [159200] [159400] [159600] [159800] [160000] [160200] [160400] [160600] [160800] [161000] [161200] [161400] [161600] [161800] [162000] [162200] [162400] [162600] [162800] [163000] [163200] [163400] [163600] [163800] [164000] [164200] [164400] [164600]
 
  The service has been written by
Heinrich Stamerjohanns